sensor_id;sensor_type;location;lat;lon;timestamp;P1;durP1;ratioP1;P2;durP2;ratioP2
26686;SDS011;14298;50.900;4.648;2023-07-09T00:00:14;1.70;;;1.60;;
26686;SDS011;14298;50.900;4.648;2023-07-09T00:02:42;3.33;;;2.53;;
26686;SDS011;14298;50.900;4.648;2023-07-09T00:05:12;2.53;;;1.97;;
26686;SDS011;14298;50.900;4.648;2023-07-09T00:07:40;2.93;;;2.30;;
26686;SDS011;14298;50.900;4.648;2023-07-09T00:10:13;3.07;;;1.73;;
26686;SDS011;14298;50.900;4.648;2023-07-09T00:12:38;2.40;;;2.20;;
26686;SDS011;14298;50.900;4.648;2023-07-09T00:15:06;4.37;;;1.77;;
26686;SDS011;14298;50.900;4.648;2023-07-09T00:17:36;2.23;;;1.87;;
26686;SDS011;14298;50.900;4.648;2023-07-09T00:20:05;3.17;;;1.90;;
26686;SDS011;14298;50.900;4.648;2023-07-09T00:22:35;3.10;;;2.17;;
26686;SDS011;14298;50.900;4.648;2023-07-09T00:27:51;2.50;;;2.30;;
26686;SDS011;14298;50.900;4.648;2023-07-09T00:30:20;3.70;;;2.03;;
26686;SDS011;14298;50.900;4.648;2023-07-09T00:32:52;2.17;;;1.97;;
26686;SDS011;14298;50.900;4.648;2023-07-09T00:35:21;2.77;;;1.90;;
26686;SDS011;14298;50.900;4.648;2023-07-09T00:37:50;2.60;;;2.30;;
26686;SDS011;14298;50.900;4.648;2023-07-09T00:40:19;2.20;;;1.67;;
26686;SDS011;14298;50.900;4.648;2023-07-09T00:42:48;3.60;;;2.40;;
26686;SDS011;14298;50.900;4.648;2023-07-09T00:45:18;2.73;;;2.17;;
26686;SDS011;14298;50.900;4.648;2023-07-09T00:47:48;2.90;;;2.17;;
26686;SDS011;14298;50.900;4.648;2023-07-09T00:53:04;3.40;;;2.67;;
26686;SDS011;14298;50.900;4.648;2023-07-09T00:55:34;3.13;;;2.20;;
26686;SDS011;14298;50.900;4.648;2023-07-09T00:58:05;3.10;;;2.80;;
26686;SDS011;14298;50.900;4.648;2023-07-09T01:00:36;4.93;;;2.73;;
26686;SDS011;14298;50.900;4.648;2023-07-09T01:03:05;2.73;;;2.53;;
26686;SDS011;14298;50.900;4.648;2023-07-09T01:05:34;9.13;;;3.10;;
26686;SDS011;14298;50.900;4.648;2023-07-09T01:08:02;3.07;;;2.60;;
26686;SDS011;14298;50.900;4.648;2023-07-09T01:10:30;4.33;;;2.93;;
26686;SDS011;14298;50.900;4.648;2023-07-09T01:12:58;3.87;;;3.27;;
26686;SDS011;14298;50.900;4.648;2023-07-09T01:15:26;2.73;;;2.40;;
26686;SDS011;14298;50.900;4.648;2023-07-09T01:17:54;2.73;;;2.50;;
26686;SDS011;14298;50.900;4.648;2023-07-09T01:20:22;3.27;;;2.70;;
26686;SDS011;14298;50.900;4.648;2023-07-09T01:22:51;3.27;;;2.60;;
26686;SDS011;14298;50.900;4.648;2023-07-09T01:25:21;5.27;;;3.63;;
26686;SDS011;14298;50.900;4.648;2023-07-09T01:27:49;6.70;;;2.70;;
26686;SDS011;14298;50.900;4.648;2023-07-09T01:30:22;3.13;;;1.77;;
26686;SDS011;14298;50.900;4.648;2023-07-09T01:32:50;3.40;;;3.07;;
26686;SDS011;14298;50.900;4.648;2023-07-09T01:35:19;3.77;;;3.40;;
26686;SDS011;14298;50.900;4.648;2023-07-09T01:37:48;3.00;;;2.70;;
26686;SDS011;14298;50.900;4.648;2023-07-09T01:40:17;3.77;;;2.70;;
26686;SDS011;14298;50.900;4.648;2023-07-09T01:42:46;6.70;;;3.00;;
26686;SDS011;14298;50.900;4.648;2023-07-09T01:45:14;3.87;;;2.87;;
26686;SDS011;14298;50.900;4.648;2023-07-09T01:47:42;2.63;;;2.17;;
26686;SDS011;14298;50.900;4.648;2023-07-09T01:50:11;2.73;;;2.53;;
26686;SDS011;14298;50.900;4.648;2023-07-09T01:52:40;3.47;;;2.20;;
26686;SDS011;14298;50.900;4.648;2023-07-09T01:55:09;3.67;;;2.47;;
26686;SDS011;14298;50.900;4.648;2023-07-09T01:57:38;2.43;;;1.77;;
26686;SDS011;14298;50.900;4.648;2023-07-09T02:00:07;3.00;;;2.70;;
26686;SDS011;14298;50.900;4.648;2023-07-09T02:02:41;2.80;;;2.53;;
26686;SDS011;14298;50.900;4.648;2023-07-09T02:05:12;4.50;;;1.50;;
26686;SDS011;14298;50.900;4.648;2023-07-09T02:07:42;4.80;;;2.73;;
26686;SDS011;14298;50.900;4.648;2023-07-09T02:10:10;3.73;;;2.20;;
26686;SDS011;14298;50.900;4.648;2023-07-09T02:12:38;2.60;;;1.90;;
26686;SDS011;14298;50.900;4.648;2023-07-09T02:15:07;4.03;;;2.13;;
26686;SDS011;14298;50.900;4.648;2023-07-09T02:17:35;3.77;;;2.60;;
26686;SDS011;14298;50.900;4.648;2023-07-09T02:20:03;2.33;;;1.70;;
26686;SDS011;14298;50.900;4.648;2023-07-09T02:22:34;2.00;;;1.90;;
26686;SDS011;14298;50.900;4.648;2023-07-09T02:25:02;2.47;;;1.90;;
26686;SDS011;14298;50.900;4.648;2023-07-09T02:27:30;3.20;;;2.03;;
26686;SDS011;14298;50.900;4.648;2023-07-09T02:29:58;3.13;;;2.13;;
26686;SDS011;14298;50.900;4.648;2023-07-09T02:32:27;6.87;;;2.07;;
26686;SDS011;14298;50.900;4.648;2023-07-09T02:34:55;2.47;;;2.00;;
26686;SDS011;14298;50.900;4.648;2023-07-09T02:37:24;2.77;;;1.87;;
26686;SDS011;14298;50.900;4.648;2023-07-09T02:39:52;1.80;;;1.70;;
26686;SDS011;14298;50.900;4.648;2023-07-09T02:42:21;3.17;;;2.20;;
26686;SDS011;14298;50.900;4.648;2023-07-09T02:44:50;3.57;;;2.30;;
26686;SDS011;14298;50.900;4.648;2023-07-09T02:47:18;2.43;;;2.07;;
26686;SDS011;14298;50.900;4.648;2023-07-09T02:49:46;2.47;;;1.90;;
26686;SDS011;14298;50.900;4.648;2023-07-09T02:52:15;2.70;;;1.30;;
26686;SDS011;14298;50.900;4.648;2023-07-09T02:54:43;2.10;;;1.80;;
26686;SDS011;14298;50.900;4.648;2023-07-09T02:57:11;2.03;;;1.70;;
26686;SDS011;14298;50.900;4.648;2023-07-09T02:59:39;1.93;;;1.70;;
26686;SDS011;14298;50.900;4.648;2023-07-09T03:02:07;2.60;;;1.70;;
26686;SDS011;14298;50.900;4.648;2023-07-09T03:04:35;2.73;;;1.73;;
26686;SDS011;14298;50.900;4.648;2023-07-09T03:09:51;3.60;;;2.13;;
26686;SDS011;14298;50.900;4.648;2023-07-09T03:12:19;1.30;;;1.17;;
26686;SDS011;14298;50.900;4.648;2023-07-09T03:14:48;1.83;;;1.43;;
26686;SDS011;14298;50.900;4.648;2023-07-09T03:17:16;1.43;;;1.33;;
26686;SDS011;14298;50.900;4.648;2023-07-09T03:19:44;1.67;;;1.40;;
26686;SDS011;14298;50.900;4.648;2023-07-09T03:22:12;1.37;;;1.23;;
26686;SDS011;14298;50.900;4.648;2023-07-09T03:24:40;1.70;;;1.27;;
26686;SDS011;14298;50.900;4.648;2023-07-09T03:27:08;1.53;;;1.43;;
26686;SDS011;14298;50.900;4.648;2023-07-09T03:29:36;2.30;;;2.10;;
26686;SDS011;14298;50.900;4.648;2023-07-09T03:32:04;1.40;;;1.30;;
26686;SDS011;14298;50.900;4.648;2023-07-09T03:34:32;2.07;;;1.30;;
26686;SDS011;14298;50.900;4.648;2023-07-09T03:37:00;2.00;;;1.70;;
26686;SDS011;14298;50.900;4.648;2023-07-09T03:39:28;1.67;;;1.57;;
26686;SDS011;14298;50.900;4.648;2023-07-09T03:41:56;7.47;;;1.83;;
26686;SDS011;14298;50.900;4.648;2023-07-09T03:44:25;3.00;;;2.03;;
26686;SDS011;14298;50.900;4.648;2023-07-09T03:46:53;10.33;;;1.73;;
26686;SDS011;14298;50.900;4.648;2023-07-09T03:49:21;1.90;;;1.30;;
26686;SDS011;14298;50.900;4.648;2023-07-09T03:51:49;3.07;;;1.80;;
26686;SDS011;14298;50.900;4.648;2023-07-09T03:54:17;1.80;;;1.70;;
26686;SDS011;14298;50.900;4.648;2023-07-09T03:56:45;5.17;;;2.27;;
26686;SDS011;14298;50.900;4.648;2023-07-09T03:59:13;1.70;;;1.37;;
26686;SDS011;14298;50.900;4.648;2023-07-09T04:01:41;2.40;;;1.23;;
26686;SDS011;14298;50.900;4.648;2023-07-09T04:04:11;1.70;;;1.60;;
26686;SDS011;14298;50.900;4.648;2023-07-09T04:06:39;1.20;;;1.10;;
26686;SDS011;14298;50.900;4.648;2023-07-09T04:09:07;4.97;;;1.90;;
26686;SDS011;14298;50.900;4.648;2023-07-09T04:11:36;3.83;;;1.93;;
26686;SDS011;14298;50.900;4.648;2023-07-09T04:14:04;3.67;;;2.17;;
26686;SDS011;14298;50.900;4.648;2023-07-09T04:16:34;4.83;;;2.13;;
26686;SDS011;14298;50.900;4.648;2023-07-09T04:19:02;4.57;;;1.90;;
26686;SDS011;14298;50.900;4.648;2023-07-09T04:21:30;1.73;;;1.43;;
26686;SDS011;14298;50.900;4.648;2023-07-09T04:23:58;2.43;;;2.00;;
26686;SDS011;14298;50.900;4.648;2023-07-09T04:26:26;1.50;;;1.40;;
26686;SDS011;14298;50.900;4.648;2023-07-09T04:28:54;2.27;;;1.93;;
26686;SDS011;14298;50.900;4.648;2023-07-09T04:31:22;3.30;;;1.70;;
26686;SDS011;14298;50.900;4.648;2023-07-09T04:33:50;2.40;;;1.50;;
26686;SDS011;14298;50.900;4.648;2023-07-09T04:36:19;2.50;;;1.70;;
26686;SDS011;14298;50.900;4.648;2023-07-09T04:38:47;4.83;;;2.00;;
26686;SDS011;14298;50.900;4.648;2023-07-09T04:41:15;6.13;;;1.93;;
26686;SDS011;14298;50.900;4.648;2023-07-09T04:43:43;4.70;;;1.47;;
26686;SDS011;14298;50.900;4.648;2023-07-09T04:46:11;6.30;;;1.47;;
26686;SDS011;14298;50.900;4.648;2023-07-09T04:48:39;2.23;;;1.47;;
26686;SDS011;14298;50.900;4.648;2023-07-09T04:51:07;2.90;;;1.50;;
26686;SDS011;14298;50.900;4.648;2023-07-09T04:53:35;2.50;;;1.47;;
26686;SDS011;14298;50.900;4.648;2023-07-09T04:56:03;2.87;;;2.03;;
26686;SDS011;14298;50.900;4.648;2023-07-09T04:58:31;1.93;;;1.77;;
26686;SDS011;14298;50.900;4.648;2023-07-09T05:00:59;5.23;;;1.77;;
26686;SDS011;14298;50.900;4.648;2023-07-09T05:03:27;1.60;;;1.27;;
26686;SDS011;14298;50.900;4.648;2023-07-09T05:05:56;2.27;;;1.60;;
26686;SDS011;14298;50.900;4.648;2023-07-09T05:08:23;2.07;;;1.80;;
26686;SDS011;14298;50.900;4.648;2023-07-09T05:10:52;2.03;;;1.63;;
26686;SDS011;14298;50.900;4.648;2023-07-09T05:13:20;2.73;;;1.77;;
26686;SDS011;14298;50.900;4.648;2023-07-09T05:15:48;8.33;;;2.50;;
26686;SDS011;14298;50.900;4.648;2023-07-09T05:18:17;1.73;;;1.63;;
26686;SDS011;14298;50.900;4.648;2023-07-09T05:20:46;3.30;;;1.90;;
26686;SDS011;14298;50.900;4.648;2023-07-09T05:23:14;1.63;;;1.50;;
26686;SDS011;14298;50.900;4.648;2023-07-09T05:25:42;1.27;;;1.10;;
26686;SDS011;14298;50.900;4.648;2023-07-09T05:28:10;2.20;;;2.00;;
26686;SDS011;14298;50.900;4.648;2023-07-09T05:30:40;8.77;;;1.67;;
26686;SDS011;14298;50.900;4.648;2023-07-09T05:33:07;3.13;;;1.57;;
26686;SDS011;14298;50.900;4.648;2023-07-09T05:35:35;1.30;;;1.20;;
26686;SDS011;14298;50.900;4.648;2023-07-09T05:38:03;2.58;;;1.80;;
26686;SDS011;14298;50.900;4.648;2023-07-09T05:40:31;2.77;;;1.53;;
26686;SDS011;14298;50.900;4.648;2023-07-09T05:42:59;1.70;;;1.37;;
26686;SDS011;14298;50.900;4.648;2023-07-09T05:45:27;1.50;;;1.40;;
26686;SDS011;14298;50.900;4.648;2023-07-09T05:47:55;1.60;;;1.40;;
26686;SDS011;14298;50.900;4.648;2023-07-09T05:50:23;2.55;;;1.60;;
26686;SDS011;14298;50.900;4.648;2023-07-09T05:52:51;3.30;;;1.70;;
26686;SDS011;14298;50.900;4.648;2023-07-09T05:55:19;1.35;;;1.02;;
26686;SDS011;14298;50.900;4.648;2023-07-09T05:57:47;4.20;;;1.75;;
26686;SDS011;14298;50.900;4.648;2023-07-09T06:00:15;3.25;;;1.62;;
26686;SDS011;14298;50.900;4.648;2023-07-09T06:02:43;2.85;;;1.98;;
26686;SDS011;14298;50.900;4.648;2023-07-09T06:05:11;3.80;;;1.32;;
26686;SDS011;14298;50.900;4.648;2023-07-09T06:07:39;3.50;;;1.95;;
26686;SDS011;14298;50.900;4.648;2023-07-09T06:10:08;3.05;;;1.90;;
26686;SDS011;14298;50.900;4.648;2023-07-09T06:12:36;3.10;;;1.70;;
26686;SDS011;14298;50.900;4.648;2023-07-09T06:15:05;1.98;;;1.42;;
26686;SDS011;14298;50.900;4.648;2023-07-09T06:17:33;2.40;;;1.82;;
26686;SDS011;14298;50.900;4.648;2023-07-09T06:20:01;1.55;;;1.45;;
26686;SDS011;14298;50.900;4.648;2023-07-09T06:22:29;2.47;;;1.65;;
26686;SDS011;14298;50.900;4.648;2023-07-09T06:24:57;1.22;;;1.15;;
26686;SDS011;14298;50.900;4.648;2023-07-09T06:27:25;1.85;;;1.67;;
26686;SDS011;14298;50.900;4.648;2023-07-09T06:29:53;2.12;;;1.52;;
26686;SDS011;14298;50.900;4.648;2023-07-09T06:32:21;3.02;;;1.50;;
26686;SDS011;14298;50.900;4.648;2023-07-09T06:34:49;1.90;;;1.80;;
26686;SDS011;14298;50.900;4.648;2023-07-09T06:37:17;1.87;;;1.72;;
26686;SDS011;14298;50.900;4.648;2023-07-09T06:39:45;4.22;;;1.47;;
26686;SDS011;14298;50.900;4.648;2023-07-09T06:42:13;2.05;;;1.40;;
26686;SDS011;14298;50.900;4.648;2023-07-09T06:44:42;6.58;;;2.87;;
26686;SDS011;14298;50.900;4.648;2023-07-09T06:47:10;2.62;;;1.57;;
26686;SDS011;14298;50.900;4.648;2023-07-09T06:49:38;1.27;;;1.17;;
26686;SDS011;14298;50.900;4.648;2023-07-09T06:52:06;2.12;;;1.92;;
26686;SDS011;14298;50.900;4.648;2023-07-09T06:54:34;1.92;;;1.70;;
26686;SDS011;14298;50.900;4.648;2023-07-09T06:57:02;2.30;;;1.77;;
26686;SDS011;14298;50.900;4.648;2023-07-09T06:59:30;1.27;;;1.10;;
26686;SDS011;14298;50.900;4.648;2023-07-09T07:01:58;2.62;;;1.55;;
26686;SDS011;14298;50.900;4.648;2023-07-09T07:04:26;1.57;;;1.37;;
26686;SDS011;14298;50.900;4.648;2023-07-09T07:06:54;1.52;;;1.42;;
26686;SDS011;14298;50.900;4.648;2023-07-09T07:09:23;2.10;;;1.60;;
26686;SDS011;14298;50.900;4.648;2023-07-09T07:11:51;2.10;;;1.22;;
26686;SDS011;14298;50.900;4.648;2023-07-09T07:14:19;1.62;;;1.52;;
26686;SDS011;14298;50.900;4.648;2023-07-09T07:16:47;2.72;;;1.70;;
26686;SDS011;14298;50.900;4.648;2023-07-09T07:19:15;4.87;;;1.12;;
26686;SDS011;14298;50.900;4.648;2023-07-09T07:21:43;3.25;;;1.85;;
26686;SDS011;14298;50.900;4.648;2023-07-09T07:24:11;1.80;;;1.35;;
26686;SDS011;14298;50.900;4.648;2023-07-09T07:26:40;2.72;;;1.47;;
26686;SDS011;14298;50.900;4.648;2023-07-09T07:29:08;2.72;;;1.40;;
26686;SDS011;14298;50.900;4.648;2023-07-09T07:31:36;1.72;;;1.25;;
26686;SDS011;14298;50.900;4.648;2023-07-09T07:34:03;2.17;;;1.42;;
26686;SDS011;14298;50.900;4.648;2023-07-09T07:36:31;4.08;;;1.40;;
26686;SDS011;14298;50.900;4.648;2023-07-09T07:39:00;1.90;;;1.27;;
26686;SDS011;14298;50.900;4.648;2023-07-09T07:41:28;2.42;;;2.12;;
26686;SDS011;14298;50.900;4.648;2023-07-09T07:43:56;2.67;;;1.40;;
26686;SDS011;14298;50.900;4.648;2023-07-09T07:46:24;1.95;;;1.55;;
26686;SDS011;14298;50.900;4.648;2023-07-09T07:48:53;1.95;;;1.45;;
26686;SDS011;14298;50.900;4.648;2023-07-09T07:51:21;2.60;;;1.55;;
26686;SDS011;14298;50.900;4.648;2023-07-09T07:53:49;1.50;;;1.32;;
26686;SDS011;14298;50.900;4.648;2023-07-09T07:56:17;1.82;;;1.60;;
26686;SDS011;14298;50.900;4.648;2023-07-09T07:58:45;2.10;;;1.37;;
26686;SDS011;14298;50.900;4.648;2023-07-09T08:01:13;1.12;;;0.95;;
26686;SDS011;14298;50.900;4.648;2023-07-09T08:03:41;1.12;;;1.02;;
26686;SDS011;14298;50.900;4.648;2023-07-09T08:06:09;4.85;;;1.72;;
26686;SDS011;14298;50.900;4.648;2023-07-09T08:08:38;14.20;;;1.37;;
26686;SDS011;14298;50.900;4.648;2023-07-09T08:11:07;2.55;;;1.40;;
26686;SDS011;14298;50.900;4.648;2023-07-09T08:13:35;3.20;;;1.65;;
26686;SDS011;14298;50.900;4.648;2023-07-09T08:16:03;2.25;;;1.57;;
26686;SDS011;14298;50.900;4.648;2023-07-09T08:18:31;1.42;;;1.32;;
26686;SDS011;14298;50.900;4.648;2023-07-09T08:20:59;2.98;;;2.05;;
26686;SDS011;14298;50.900;4.648;2023-07-09T08:23:28;2.85;;;2.15;;
26686;SDS011;14298;50.900;4.648;2023-07-09T08:25:56;1.77;;;1.57;;
26686;SDS011;14298;50.900;4.648;2023-07-09T08:28:25;4.72;;;1.87;;
26686;SDS011;14298;50.900;4.648;2023-07-09T08:30:53;1.80;;;1.70;;
26686;SDS011;14298;50.900;4.648;2023-07-09T08:33:22;3.42;;;1.82;;
26686;SDS011;14298;50.900;4.648;2023-07-09T08:35:51;2.20;;;1.65;;
26686;SDS011;14298;50.900;4.648;2023-07-09T08:38:20;3.08;;;1.90;;
26686;SDS011;14298;50.900;4.648;2023-07-09T08:40:58;4.95;;;2.40;;
26686;SDS011;14298;50.900;4.648;2023-07-09T08:43:22;6.08;;;2.58;;
26686;SDS011;14298;50.900;4.648;2023-07-09T08:45:50;2.17;;;1.98;;
26686;SDS011;14298;50.900;4.648;2023-07-09T08:48:28;3.17;;;1.90;;
26686;SDS011;14298;50.900;4.648;2023-07-09T08:50:51;2.62;;;2.35;;
26686;SDS011;14298;50.900;4.648;2023-07-09T08:53:19;5.87;;;2.90;;
26686;SDS011;14298;50.900;4.648;2023-07-09T08:55:48;3.22;;;2.92;;
26686;SDS011;14298;50.900;4.648;2023-07-09T08:58:20;5.53;;;4.40;;
26686;SDS011;14298;50.900;4.648;2023-07-09T09:06:16;6.45;;;5.08;;
26686;SDS011;14298;50.900;4.648;2023-07-09T09:08:44;6.00;;;4.00;;
26686;SDS011;14298;50.900;4.648;2023-07-09T09:13:43;5.85;;;4.20;;
26686;SDS011;14298;50.900;4.648;2023-07-09T09:16:18;4.40;;;3.83;;
26686;SDS011;14298;50.900;4.648;2023-07-09T09:18:42;5.17;;;3.67;;
26686;SDS011;14298;50.900;4.648;2023-07-09T09:21:13;8.78;;;5.67;;
26686;SDS011;14298;50.900;4.648;2023-07-09T09:23:46;5.55;;;4.50;;
26686;SDS011;14298;50.900;4.648;2023-07-09T09:26:14;6.60;;;4.90;;
26686;SDS011;14298;50.900;4.648;2023-07-09T09:28:39;6.62;;;5.10;;
26686;SDS011;14298;50.900;4.648;2023-07-09T09:31:08;10.05;;;6.37;;
26686;SDS011;14298;50.900;4.648;2023-07-09T09:33:41;8.60;;;5.97;;
26686;SDS011;14298;50.900;4.648;2023-07-09T09:36:11;8.00;;;4.90;;
26686;SDS011;14298;50.900;4.648;2023-07-09T09:38:36;8.13;;;5.35;;
26686;SDS011;14298;50.900;4.648;2023-07-09T09:41:04;5.90;;;4.42;;
26686;SDS011;14298;50.900;4.648;2023-07-09T09:43:32;5.53;;;4.67;;
26686;SDS011;14298;50.900;4.648;2023-07-09T09:46:00;7.22;;;5.70;;
26686;SDS011;14298;50.900;4.648;2023-07-09T09:48:30;6.35;;;4.45;;
26686;SDS011;14298;50.900;4.648;2023-07-09T09:51:03;11.68;;;6.40;;
26686;SDS011;14298;50.900;4.648;2023-07-09T09:53:34;7.08;;;4.83;;
26686;SDS011;14298;50.900;4.648;2023-07-09T09:56:03;8.55;;;3.85;;
26686;SDS011;14298;50.900;4.648;2023-07-09T09:58:29;6.80;;;5.15;;
26686;SDS011;14298;50.900;4.648;2023-07-09T10:00:58;8.95;;;4.42;;
26686;SDS011;14298;50.900;4.648;2023-07-09T10:03:37;6.83;;;5.05;;
26686;SDS011;14298;50.900;4.648;2023-07-09T10:06:07;11.60;;;4.85;;
26686;SDS011;14298;50.900;4.648;2023-07-09T10:11:29;9.58;;;6.33;;
26686;SDS011;14298;50.900;4.648;2023-07-09T10:13:56;6.65;;;5.12;;
26686;SDS011;14298;50.900;4.648;2023-07-09T10:16:27;8.15;;;4.87;;
26686;SDS011;14298;50.900;4.648;2023-07-09T10:19:02;13.03;;;6.15;;
26686;SDS011;14298;50.900;4.648;2023-07-09T10:24:23;8.75;;;6.40;;
26686;SDS011;14298;50.900;4.648;2023-07-09T10:26:53;9.45;;;4.97;;
26686;SDS011;14298;50.900;4.648;2023-07-09T10:29:34;9.30;;;6.10;;
26686;SDS011;14298;50.900;4.648;2023-07-09T10:32:07;9.43;;;6.42;;
26686;SDS011;14298;50.900;4.648;2023-07-09T10:34:32;7.15;;;5.40;;
26686;SDS011;14298;50.900;4.648;2023-07-09T10:37:17;8.53;;;5.12;;
26686;SDS011;14298;50.900;4.648;2023-07-09T10:39:51;13.70;;;7.55;;
26686;SDS011;14298;50.900;4.648;2023-07-09T10:42:22;11.83;;;8.55;;
26686;SDS011;14298;50.900;4.648;2023-07-09T10:44:58;10.40;;;7.67;;
26686;SDS011;14298;50.900;4.648;2023-07-09T10:47:35;9.53;;;7.05;;
26686;SDS011;14298;50.900;4.648;2023-07-09T10:49:58;10.05;;;6.10;;
26686;SDS011;14298;50.900;4.648;2023-07-09T10:52:35;9.45;;;6.33;;
26686;SDS011;14298;50.900;4.648;2023-07-09T10:57:54;9.70;;;6.17;;
26686;SDS011;14298;50.900;4.648;2023-07-09T11:00:23;8.28;;;6.05;;
26686;SDS011;14298;50.900;4.648;2023-07-09T11:02:58;7.10;;;5.95;;
26686;SDS011;14298;50.900;4.648;2023-07-09T11:05:21;6.72;;;5.70;;
26686;SDS011;14298;50.900;4.648;2023-07-09T11:10:35;7.58;;;5.78;;
26686;SDS011;14298;50.900;4.648;2023-07-09T11:13:05;4.35;;;3.95;;
26686;SDS011;14298;50.900;4.648;2023-07-09T11:15:35;6.70;;;3.72;;
26686;SDS011;14298;50.900;4.648;2023-07-09T11:18:11;6.15;;;3.83;;
26686;SDS011;14298;50.900;4.648;2023-07-09T11:20:42;3.22;;;2.90;;
26686;SDS011;14298;50.900;4.648;2023-07-09T11:23:23;3.35;;;2.80;;
26686;SDS011;14298;50.900;4.648;2023-07-09T11:25:47;3.00;;;2.50;;
26686;SDS011;14298;50.900;4.648;2023-07-09T11:28:16;4.92;;;3.15;;
26686;SDS011;14298;50.900;4.648;2023-07-09T11:33:32;2.60;;;1.98;;
26686;SDS011;14298;50.900;4.648;2023-07-09T11:36:11;2.65;;;2.45;;
26686;SDS011;14298;50.900;4.648;2023-07-09T11:38:41;2.70;;;2.05;;
26686;SDS011;14298;50.900;4.648;2023-07-09T11:43:51;3.02;;;2.15;;
26686;SDS011;14298;50.900;4.648;2023-07-09T11:46:20;2.20;;;1.70;;
26686;SDS011;14298;50.900;4.648;2023-07-09T11:48:48;5.95;;;1.50;;
26686;SDS011;14298;50.900;4.648;2023-07-09T11:51:17;2.72;;;1.52;;
26686;SDS011;14298;50.900;4.648;2023-07-09T11:56:33;2.13;;;1.93;;
26686;SDS011;14298;50.900;4.648;2023-07-09T11:59:01;3.05;;;1.70;;
26686;SDS011;14298;50.900;4.648;2023-07-09T12:01:34;3.80;;;1.60;;
26686;SDS011;14298;50.900;4.648;2023-07-09T12:04:01;6.10;;;2.20;;
26686;SDS011;14298;50.900;4.648;2023-07-09T12:06:32;2.22;;;1.25;;
26686;SDS011;14298;50.900;4.648;2023-07-09T12:09:00;4.03;;;1.72;;
26686;SDS011;14298;50.900;4.648;2023-07-09T12:11:32;2.10;;;1.57;;
26686;SDS011;14298;50.900;4.648;2023-07-09T12:14:01;1.75;;;1.55;;
26686;SDS011;14298;50.900;4.648;2023-07-09T12:16:34;2.92;;;1.82;;
26686;SDS011;14298;50.900;4.648;2023-07-09T12:19:02;1.95;;;1.70;;
26686;SDS011;14298;50.900;4.648;2023-07-09T12:21:31;1.87;;;1.57;;
26686;SDS011;14298;50.900;4.648;2023-07-09T12:23:59;2.17;;;1.70;;
26686;SDS011;14298;50.900;4.648;2023-07-09T12:26:30;2.33;;;1.52;;
26686;SDS011;14298;50.900;4.648;2023-07-09T12:28:58;2.27;;;1.65;;
26686;SDS011;14298;50.900;4.648;2023-07-09T12:31:28;1.87;;;1.50;;
26686;SDS011;14298;50.900;4.648;2023-07-09T12:33:58;1.60;;;1.32;;
26686;SDS011;14298;50.900;4.648;2023-07-09T12:36:27;2.40;;;1.45;;
26686;SDS011;14298;50.900;4.648;2023-07-09T12:39:01;0.98;;;0.98;;
26686;SDS011;14298;50.900;4.648;2023-07-09T12:41:35;2.52;;;1.25;;
26686;SDS011;14298;50.900;4.648;2023-07-09T12:44:03;3.27;;;2.33;;
26686;SDS011;14298;50.900;4.648;2023-07-09T12:46:31;4.50;;;2.58;;
26686;SDS011;14298;50.900;4.648;2023-07-09T12:48:59;4.30;;;3.00;;
26686;SDS011;14298;50.900;4.648;2023-07-09T12:51:28;5.10;;;2.17;;
26686;SDS011;14298;50.900;4.648;2023-07-09T12:54:15;4.47;;;2.87;;
26686;SDS011;14298;50.900;4.648;2023-07-09T12:56:38;4.60;;;2.70;;
26686;SDS011;14298;50.900;4.648;2023-07-09T12:59:17;4.47;;;4.07;;
26686;SDS011;14298;50.900;4.648;2023-07-09T13:01:54;9.47;;;8.77;;
26686;SDS011;14298;50.900;4.648;2023-07-09T13:04:15;7.97;;;7.37;;
26686;SDS011;14298;50.900;4.648;2023-07-09T13:06:44;8.83;;;8.13;;
26686;SDS011;14298;50.900;4.648;2023-07-09T13:09:19;14.67;;;13.80;;
26686;SDS011;14298;50.900;4.648;2023-07-09T13:11:42;22.87;;;21.37;;
26686;SDS011;14298;50.900;4.648;2023-07-09T13:14:17;55.33;;;52.17;;
26686;SDS011;14298;50.900;4.648;2023-07-09T13:16:41;45.40;;;42.60;;
26686;SDS011;14298;50.900;4.648;2023-07-09T13:19:10;84.60;;;79.47;;
26686;SDS011;14298;50.900;4.648;2023-07-09T13:21:38;102.90;;;96.23;;
26686;SDS011;14298;50.900;4.648;2023-07-09T13:24:20;96.40;;;90.80;;
26686;SDS011;14298;50.900;4.648;2023-07-09T13:26:49;96.40;;;90.20;;
26686;SDS011;14298;50.900;4.648;2023-07-09T13:29:18;87.27;;;81.90;;
26686;SDS011;14298;50.900;4.648;2023-07-09T13:31:47;88.20;;;82.33;;
26686;SDS011;14298;50.900;4.648;2023-07-09T13:36:47;97.93;;;91.80;;
26686;SDS011;14298;50.900;4.648;2023-07-09T13:39:16;95.20;;;88.83;;
26686;SDS011;14298;50.900;4.648;2023-07-09T13:41:44;94.93;;;88.47;;
26686;SDS011;14298;50.900;4.648;2023-07-09T13:44:14;96.97;;;90.63;;
26686;SDS011;14298;50.900;4.648;2023-07-09T13:46:43;96.27;;;89.83;;
26686;SDS011;14298;50.900;4.648;2023-07-09T13:49:12;84.43;;;79.67;;
26686;SDS011;14298;50.900;4.648;2023-07-09T13:51:43;110.50;;;104.37;;
26686;SDS011;14298;50.900;4.648;2023-07-09T13:54:22;82.07;;;77.80;;
26686;SDS011;14298;50.900;4.648;2023-07-09T13:56:47;77.87;;;73.50;;
26686;SDS011;14298;50.900;4.648;2023-07-09T13:59:18;16.07;;;15.13;;
26686;SDS011;14298;50.900;4.648;2023-07-09T14:01:47;7.90;;;7.20;;
26686;SDS011;14298;50.900;4.648;2023-07-09T14:04:16;5.13;;;4.63;;
26686;SDS011;14298;50.900;4.648;2023-07-09T14:06:44;4.43;;;3.07;;
26686;SDS011;14298;50.900;4.648;2023-07-09T14:09:15;3.13;;;2.83;;
26686;SDS011;14298;50.900;4.648;2023-07-09T14:11:50;4.70;;;2.67;;
26686;SDS011;14298;50.900;4.648;2023-07-09T14:14:20;4.77;;;2.83;;
26686;SDS011;14298;50.900;4.648;2023-07-09T14:16:48;3.17;;;2.80;;
26686;SDS011;14298;50.900;4.648;2023-07-09T14:19:18;3.23;;;2.93;;
26686;SDS011;14298;50.900;4.648;2023-07-09T14:21:47;5.03;;;3.07;;
26686;SDS011;14298;50.900;4.648;2023-07-09T14:24:19;6.40;;;3.63;;
26686;SDS011;14298;50.900;4.648;2023-07-09T14:26:50;3.17;;;2.67;;
26686;SDS011;14298;50.900;4.648;2023-07-09T14:29:19;7.17;;;2.33;;
26686;SDS011;14298;50.900;4.648;2023-07-09T14:31:47;8.03;;;2.30;;
26686;SDS011;14298;50.900;4.648;2023-07-09T14:34:19;2.22;;;2.00;;
26686;SDS011;14298;50.900;4.648;2023-07-09T14:36:49;3.13;;;2.83;;
26686;SDS011;14298;50.900;4.648;2023-07-09T14:39:17;4.15;;;2.17;;
26686;SDS011;14298;50.900;4.648;2023-07-09T14:41:45;3.17;;;2.42;;
26686;SDS011;14298;50.900;4.648;2023-07-09T14:44:22;2.63;;;2.23;;
26686;SDS011;14298;50.900;4.648;2023-07-09T14:46:50;2.80;;;1.83;;
26686;SDS011;14298;50.900;4.648;2023-07-09T14:49:18;1.50;;;1.35;;
26686;SDS011;14298;50.900;4.648;2023-07-09T14:51:49;1.65;;;1.27;;
26686;SDS011;14298;50.900;4.648;2023-07-09T14:54:26;3.93;;;2.40;;
26686;SDS011;14298;50.900;4.648;2023-07-09T14:56:55;3.65;;;2.00;;
26686;SDS011;14298;50.900;4.648;2023-07-09T14:59:24;1.82;;;1.67;;
26686;SDS011;14298;50.900;4.648;2023-07-09T15:01:52;1.70;;;1.60;;
26686;SDS011;14298;50.900;4.648;2023-07-09T15:06:51;2.77;;;2.05;;
26686;SDS011;14298;50.900;4.648;2023-07-09T15:09:21;3.58;;;2.27;;
26686;SDS011;14298;50.900;4.648;2023-07-09T15:11:50;2.23;;;1.90;;
26686;SDS011;14298;50.900;4.648;2023-07-09T15:14:18;4.43;;;2.63;;
26686;SDS011;14298;50.900;4.648;2023-07-09T15:16:47;1.93;;;1.63;;
26686;SDS011;14298;50.900;4.648;2023-07-09T15:19:17;2.27;;;2.07;;
26686;SDS011;14298;50.900;4.648;2023-07-09T15:21:46;2.17;;;1.73;;
26686;SDS011;14298;50.900;4.648;2023-07-09T15:24:20;2.43;;;1.80;;
26686;SDS011;14298;50.900;4.648;2023-07-09T15:26:45;2.43;;;2.00;;
26686;SDS011;14298;50.900;4.648;2023-07-09T15:29:14;3.00;;;1.63;;
26686;SDS011;14298;50.900;4.648;2023-07-09T15:31:45;3.07;;;1.63;;
26686;SDS011;14298;50.900;4.648;2023-07-09T15:34:13;2.15;;;1.98;;
26686;SDS011;14298;50.900;4.648;2023-07-09T15:36:50;2.15;;;1.95;;